Time;durP1;ratioP1;P1;durP2;ratioP2;P2;SDS_P1;SDS_P2;PMS_P1;PMS_P2;Temp;Humidity;BMP_temperature;BMP_pressure;BME280_temperature;BME280_humidity;BME280_pressure;Samples;Min_cycle;Max_cycle;Signal;HPM_P1;HPM_P2
2020/12/04 00:02:06;;;;;;;76.53;16.42;;;2.10;1.00;;;;;;5051388;28;20322;-74
2020/12/04 00:04:32;;;;;;;82.10;17.95;;;2.20;1.00;;;;;;5051713;28;20236;-74
2020/12/04 00:07:00;;;;;;;76.90;16.10;;;2.20;1.00;;;;;;5051422;28;20210;-74
2020/12/04 00:09:26;;;;;;;75.22;15.00;;;2.20;1.00;;;;;;5051631;28;20674;-74
2020/12/04 00:11:53;;;;;;;72.65;14.98;;;2.20;1.00;;;;;;5051456;28;20210;-74
2020/12/04 00:14:20;;;;;;;74.60;15.65;;;2.20;1.00;;;;;;5051342;28;20236;-74
2020/12/04 00:16:46;;;;;;;73.07;15.80;;;2.20;1.00;;;;;;5050904;28;20296;-74
2020/12/04 00:19:13;;;;;;;72.97;15.40;;;2.20;1.00;;;;;;5051149;28;20212;-73
2020/12/04 00:21:40;;;;;;;73.57;14.68;;;2.20;1.00;;;;;;5076864;22;20243;-69
2020/12/04 00:24:07;;;;;;;75.82;16.50;;;2.10;1.00;;;;;;5051008;28;20235;-72
2020/12/04 00:26:36;;;;;;;76.38;16.10;;;2.10;1.00;;;;;;5050992;28;20241;-70
2020/12/04 00:29:04;;;;;;;73.82;14.77;;;2.20;1.00;;;;;;5051011;28;20213;-70
2020/12/04 00:31:30;;;;;;;70.75;14.52;;;2.20;1.00;;;;;;5051405;28;20632;-70
2020/12/04 00:33:56;;;;;;;73.03;15.50;;;2.20;1.00;;;;;;5051089;28;20293;-70
2020/12/04 00:36:23;;;;;;;76.43;16.40;;;2.20;1.00;;;;;;5051032;28;20252;-70
2020/12/04 00:38:49;;;;;;;72.43;15.52;;;2.20;1.00;;;;;;5051061;28;20278;-70
2020/12/04 00:41:16;;;;;;;75.85;15.65;;;2.10;1.00;;;;;;5051060;28;20228;-70
2020/12/04 00:43:42;;;;;;;73.75;15.73;;;2.10;1.00;;;;;;5050681;28;20213;-71
2020/12/04 00:46:13;;;;;;;76.50;15.25;;;2.10;1.00;;;;;;5050701;28;20209;-70
2020/12/04 00:48:39;;;;;;;76.82;14.85;;;2.10;1.00;;;;;;5051031;28;20676;-70
2020/12/04 00:51:06;;;;;;;73.30;15.02;;;2.10;1.00;;;;;;5050955;28;20244;-70
2020/12/04 00:53:32;;;;;;;73.70;15.18;;;2.10;1.00;;;;;;5051065;28;20205;-70
2020/12/04 00:55:58;;;;;;;74.45;15.07;;;2.10;1.00;;;;;;5050502;28;20217;-70
2020/12/04 00:58:26;;;;;;;75.15;16.48;;;2.10;1.00;;;;;;5050955;28;20263;-70
2020/12/04 01:00:52;;;;;;;76.95;16.40;;;2.10;1.00;;;;;;5050925;28;20221;-70
2020/12/04 01:03:19;;;;;;;73.68;15.05;;;2.00;1.00;;;;;;5051046;28;20237;-71
2020/12/04 01:05:45;;;;;;;73.45;14.77;;;2.10;1.00;;;;;;5050390;28;20229;-70
2020/12/04 01:08:12;;;;;;;77.07;15.75;;;2.10;1.00;;;;;;5050855;28;20206;-70
2020/12/04 01:10:38;;;;;;;72.60;15.88;;;2.10;1.00;;;;;;5050611;28;20642;-71
2020/12/04 01:13:04;;;;;;;76.10;16.77;;;2.10;1.00;;;;;;5050866;28;20689;-70
2020/12/04 01:15:31;;;;;;;80.80;16.90;;;2.10;1.00;;;;;;5050771;28;20201;-70
2020/12/04 01:17:58;;;;;;;75.38;14.43;;;2.10;1.00;;;;;;5050548;28;20208;-70
2020/12/04 01:20:25;;;;;;;69.63;13.18;;;2.10;1.00;;;;;;5050819;28;20248;-71
2020/12/04 01:22:51;;;;;;;72.75;14.63;;;2.20;1.00;;;;;;5050590;28;20205;-70
2020/12/04 01:25:17;;;;;;;72.38;15.43;;;2.10;1.00;;;;;;5050540;28;20222;-71
2020/12/04 01:27:44;;;;;;;75.28;15.55;;;2.20;1.00;;;;;;5050229;28;20696;-70
2020/12/04 01:30:10;;;;;;;76.53;15.52;;;2.20;1.00;;;;;;5050753;28;20206;-70
2020/12/04 01:32:37;;;;;;;71.93;14.25;;;2.20;1.00;;;;;;5053414;28;20673;-70
2020/12/04 01:35:04;;;;;;;76.78;14.43;;;2.20;1.00;;;;;;5054376;28;20198;-70
2020/12/04 01:37:30;;;;;;;74.57;15.00;;;2.20;1.00;;;;;;5053833;28;20217;-70
2020/12/04 01:39:57;;;;;;;74.95;15.63;;;2.20;1.00;;;;;;5053807;28;20252;-71
2020/12/04 01:42:23;;;;;;;75.53;15.07;;;2.20;1.00;;;;;;5054137;28;20221;-70
2020/12/04 01:44:50;;;;;;;74.65;14.85;;;2.20;1.00;;;;;;5054018;28;20226;-70
2020/12/04 01:47:17;;;;;;;74.95;14.73;;;2.20;1.00;;;;;;5053906;28;20574;-70
2020/12/04 01:49:45;;;;;;;74.05;14.32;;;2.20;1.00;;;;;;5053858;28;20206;-70
2020/12/04 01:52:13;;;;;;;73.88;15.27;;;2.20;1.00;;;;;;5053574;28;20759;-70
2020/12/04 01:54:40;;;;;;;71.13;13.32;;;2.20;1.00;;;;;;5053852;28;20205;-70
2020/12/04 01:57:06;;;;;;;73.63;15.18;;;2.20;1.00;;;;;;5053787;28;20267;-70
2020/12/04 01:59:33;;;;;;;75.45;15.10;;;2.20;1.00;;;;;;5053809;28;20210;-70
2020/12/04 02:02:20;;;;;;;76.03;14.20;;;2.20;1.00;;;;;;5053664;28;20233;-70
2020/12/04 02:04:49;;;;;;;71.53;14.00;;;2.20;1.00;;;;;;5053291;28;20225;-70
2020/12/04 02:07:24;;;;;;;72.65;13.93;;;2.20;1.00;;;;;;5053570;28;20283;-70
2020/12/04 02:09:53;;;;;;;70.63;13.55;;;2.20;1.00;;;;;;5053544;28;20415;-70
2020/12/04 02:12:22;;;;;;;74.60;14.93;;;2.30;1.00;;;;;;5053342;28;20225;-70
2020/12/04 02:14:49;;;;;;;73.72;14.38;;;2.30;1.00;;;;;;5053527;28;20631;-70
2020/12/04 02:17:15;;;;;;;73.25;13.38;;;2.30;1.00;;;;;;5053055;28;20303;-70
2020/12/04 02:19:43;;;;;;;74.18;15.88;;;2.30;1.00;;;;;;5053412;28;20684;-70
2020/12/04 02:22:12;;;;;;;73.60;14.80;;;2.30;1.00;;;;;;5053003;28;20287;-70
2020/12/04 02:24:40;;;;;;;75.75;14.68;;;2.30;1.00;;;;;;5053130;28;20275;-70
2020/12/04 02:27:08;;;;;;;73.05;13.65;;;2.30;1.00;;;;;;5052822;28;20209;-71
2020/12/04 02:29:36;;;;;;;71.80;14.07;;;2.30;1.00;;;;;;5053207;28;20210;-70
2020/12/04 02:32:03;;;;;;;69.43;12.88;;;2.30;1.00;;;;;;5049803;28;20233;-70
2020/12/04 02:34:29;;;;;;;72.78;13.68;;;2.30;1.00;;;;;;5053119;28;20224;-70
2020/12/04 02:36:55;;;;;;;72.75;13.45;;;2.30;1.00;;;;;;5052777;28;20216;-70
2020/12/04 02:39:23;;;;;;;70.97;13.35;;;2.30;1.00;;;;;;5053091;28;20275;-70
2020/12/04 02:41:49;;;;;;;72.15;13.60;;;2.30;1.00;;;;;;5052819;28;20232;-70
2020/12/04 02:44:15;;;;;;;68.35;13.35;;;2.30;1.00;;;;;;5052167;28;20605;-71
2020/12/04 02:46:46;;;;;;;68.53;13.20;;;2.30;1.00;;;;;;5052647;28;20213;-71
2020/12/04 02:49:13;;;;;;;71.18;13.35;;;2.30;1.00;;;;;;5052875;28;20669;-70
2020/12/04 02:51:44;;;;;;;68.93;12.55;;;2.30;1.00;;;;;;5052798;28;20241;-70
2020/12/04 02:54:10;;;;;;;66.10;11.27;;;2.30;1.00;;;;;;5052602;28;20197;-70
2020/12/04 02:56:37;;;;;;;71.72;12.85;;;2.30;1.00;;;;;;5052266;28;20297;-70
2020/12/04 02:59:04;;;;;;;72.38;13.43;;;2.30;1.00;;;;;;5052804;28;20263;-70
2020/12/04 03:01:30;;;;;;;71.82;12.88;;;2.30;1.00;;;;;;5052742;28;20308;-70
2020/12/04 03:03:57;;;;;;;69.05;12.13;;;2.30;1.00;;;;;;5052528;28;20263;-70
2020/12/04 03:06:24;;;;;;;67.90;11.85;;;2.30;1.00;;;;;;5052157;28;20201;-70
2020/12/04 03:08:51;;;;;;;68.97;12.60;;;2.30;1.00;;;;;;5052328;28;20210;-70
2020/12/04 03:11:19;;;;;;;72.40;13.25;;;2.30;1.00;;;;;;5052525;28;20265;-70
2020/12/04 03:13:47;;;;;;;72.22;12.95;;;2.40;1.00;;;;;;5052292;28;20205;-70
2020/12/04 03:16:13;;;;;;;67.82;12.57;;;2.40;1.00;;;;;;5052133;28;20279;-71
2020/12/04 03:18:40;;;;;;;71.93;12.85;;;2.40;1.00;;;;;;5052237;28;20206;-70
2020/12/04 03:21:06;;;;;;;69.72;11.82;;;2.40;1.00;;;;;;5051905;28;20229;-70
2020/12/04 03:23:33;;;;;;;69.43;12.60;;;2.40;1.00;;;;;;5052011;28;20271;-70
2020/12/04 03:25:59;;;;;;;70.28;12.63;;;2.40;1.00;;;;;;5052004;28;20229;-70
2020/12/04 03:28:26;;;;;;;71.32;12.35;;;2.40;1.00;;;;;;5052210;28;20631;-70
2020/12/04 03:30:53;;;;;;;69.50;13.45;;;2.40;1.00;;;;;;5052067;28;20229;-70
2020/12/04 03:33:20;;;;;;;69.28;12.73;;;2.40;1.00;;;;;;5052078;28;20615;-70
2020/12/04 03:35:46;;;;;;;70.55;12.98;;;2.40;1.00;;;;;;5052034;28;20198;-70
2020/12/04 03:38:13;;;;;;;67.90;11.00;;;2.40;1.00;;;;;;5051402;28;20205;-71
2020/12/04 03:40:40;;;;;;;70.85;12.43;;;2.40;1.00;;;;;;5051817;28;20317;-70
2020/12/04 03:43:06;;;;;;;70.85;11.75;;;2.40;1.00;;;;;;5051843;28;20292;-70
2020/12/04 03:45:32;;;;;;;72.97;13.20;;;2.40;1.00;;;;;;5051924;28;20318;-71
2020/12/04 03:48:00;;;;;;;66.97;11.02;;;2.40;1.00;;;;;;5051600;28;20226;-71
2020/12/04 03:50:26;;;;;;;69.75;11.90;;;2.40;1.00;;;;;;5051480;28;20748;-70
2020/12/04 03:52:52;;;;;;;70.85;13.38;;;2.40;1.00;;;;;;5051517;28;20213;-70
2020/12/04 03:55:19;;;;;;;71.63;13.15;;;2.40;1.00;;;;;;5051573;28;20197;-70
2020/12/04 03:57:45;;;;;;;70.47;12.18;;;2.50;1.00;;;;;;5051475;28;20270;-71
2020/12/04 04:00:11;;;;;;;69.88;13.30;;;2.50;1.00;;;;;;5051539;28;20206;-71
2020/12/04 04:02:38;;;;;;;71.13;13.02;;;2.50;1.00;;;;;;5051522;28;20216;-70
2020/12/04 04:05:05;;;;;;;71.88;13.68;;;2.50;1.00;;;;;;5051323;28;20221;-70
2020/12/04 04:07:31;;;;;;;69.00;13.05;;;2.50;1.00;;;;;;5051463;28;20216;-70
2020/12/04 04:09:58;;;;;;;71.20;13.02;;;2.50;1.00;;;;;;5051404;28;20217;-70
2020/12/04 04:12:24;;;;;;;69.85;11.95;;;2.50;1.00;;;;;;5051356;28;20225;-70
2020/12/04 04:14:50;;;;;;;70.93;12.90;;;2.50;1.00;;;;;;5051553;28;20741;-70
2020/12/04 04:17:17;;;;;;;68.60;12.13;;;2.60;1.00;;;;;;5051059;28;20209;-71
2020/12/04 04:19:43;;;;;;;68.05;11.05;;;2.60;1.00;;;;;;5051292;28;20301;-70
2020/12/04 04:22:10;;;;;;;69.45;12.90;;;2.60;1.00;;;;;;5050936;28;20244;-70
2020/12/04 04:24:36;;;;;;;66.90;11.18;;;2.60;1.00;;;;;;5051281;28;20225;-70
2020/12/04 04:27:03;;;;;;;67.55;11.80;;;2.60;1.00;;;;;;5051013;28;20209;-70
2020/12/04 04:29:29;;;;;;;68.15;11.23;;;2.60;1.00;;;;;;5051327;28;20213;-70
2020/12/04 04:31:56;;;;;;;68.63;12.32;;;2.60;1.00;;;;;;5050957;28;20234;-70
2020/12/04 04:34:22;;;;;;;66.88;12.10;;;2.60;1.00;;;;;;5051014;28;20202;-70
2020/12/04 04:36:49;;;;;;;69.45;11.85;;;2.60;1.00;;;;;;5050924;28;20293;-71
2020/12/04 04:39:16;;;;;;;67.32;11.80;;;2.60;1.00;;;;;;5051181;28;20271;-70
2020/12/04 04:41:42;;;;;;;67.93;11.68;;;2.60;1.00;;;;;;5050690;28;20316;-70
2020/12/04 04:44:11;;;;;;;70.80;13.20;;;2.60;1.00;;;;;;5050992;28;20217;-70
2020/12/04 04:46:47;;;;;;;67.65;10.95;;;2.60;1.00;;;;;;5050792;28;20209;-70
2020/12/04 04:49:27;;;;;;;67.78;11.73;;;2.60;1.00;;;;;;5051172;28;20573;-70
2020/12/04 04:51:54;;;;;;;68.30;11.63;;;2.60;1.00;;;;;;5051127;28;20593;-70
2020/12/04 04:54:23;;;;;;;70.82;13.50;;;2.60;1.00;;;;;;5051092;28;20209;-70
2020/12/04 04:56:50;;;;;;;72.80;12.68;;;2.60;1.00;;;;;;5050865;28;20212;-70
2020/12/04 04:59:18;;;;;;;70.03;11.07;;;2.60;1.00;;;;;;5050696;28;20209;-70
2020/12/04 05:01:46;;;;;;;68.97;11.57;;;2.60;1.00;;;;;;5050851;28;20228;-70
2020/12/04 05:04:12;;;;;;;67.55;11.27;;;2.60;1.00;;;;;;5050754;28;20205;-70
2020/12/04 05:06:39;;;;;;;72.93;11.43;;;2.60;1.00;;;;;;5052235;28;20201;-70
2020/12/04 05:09:08;;;;;;;71.15;11.90;;;2.60;1.00;;;;;;5054784;28;20278;-70
2020/12/04 05:11:36;;;;;;;65.75;10.35;;;2.60;1.00;;;;;;5054613;28;20605;-70
2020/12/04 05:14:13;;;;;;;70.03;12.10;;;2.60;1.00;;;;;;5054486;28;20619;-71
2020/12/04 05:16:40;;;;;;;71.80;11.80;;;2.60;1.00;;;;;;5054456;28;20606;-70
2020/12/04 05:19:07;;;;;;;70.45;12.15;;;2.60;1.00;;;;;;5054576;28;20343;-70
2020/12/04 05:21:34;;;;;;;70.25;12.50;;;2.70;1.00;;;;;;5054258;28;20287;-70
2020/12/04 05:24:00;;;;;;;73.53;13.73;;;2.70;1.00;;;;;;5054474;28;20293;-70
2020/12/04 05:26:34;;;;;;;66.90;12.07;;;2.60;1.00;;;;;;5053860;28;20720;-71
2020/12/04 05:29:03;;;;;;;70.13;13.48;;;2.60;1.00;;;;;;5054608;28;20213;-70
2020/12/04 05:31:31;;;;;;;69.25;12.25;;;2.70;1.00;;;;;;5054354;28;20670;-70
2020/12/04 05:33:58;;;;;;;68.43;11.85;;;2.70;1.00;;;;;;5054357;28;20213;-70
2020/12/04 05:36:26;;;;;;;68.78;11.35;;;2.70;1.00;;;;;;5054004;28;20229;-70
2020/12/04 05:38:54;;;;;;;70.28;12.98;;;2.70;1.00;;;;;;5053962;28;20388;-70
2020/12/04 05:41:21;;;;;;;71.55;13.65;;;2.70;1.00;;;;;;5054003;28;20309;-70
2020/12/04 05:43:48;;;;;;;70.13;12.63;;;2.70;1.00;;;;;;5054100;28;20237;-71
2020/12/04 05:46:20;;;;;;;73.70;13.68;;;2.70;1.00;;;;;;5053718;28;20795;-70
2020/12/04 05:48:57;;;;;;;68.78;12.00;;;2.70;1.00;;;;;;5053982;28;20205;-70
2020/12/04 05:51:25;;;;;;;69.78;11.23;;;2.70;1.00;;;;;;5053756;28;20317;-70
2020/12/04 05:53:53;;;;;;;70.75;13.50;;;2.70;1.00;;;;;;5053882;28;20205;-70
2020/12/04 05:56:19;;;;;;;73.15;12.38;;;2.70;1.00;;;;;;5053752;28;20206;-70
2020/12/04 05:58:47;;;;;;;68.82;12.00;;;2.70;1.00;;;;;;5053867;28;20233;-70
2020/12/04 06:01:17;;;;;;;70.78;13.60;;;2.70;1.00;;;;;;5053811;28;20712;-70
2020/12/04 06:03:49;;;;;;;73.82;13.32;;;2.70;1.00;;;;;;5053727;28;20202;-70
2020/12/04 06:06:23;;;;;;;68.88;11.65;;;2.70;1.00;;;;;;5053658;28;20233;-70
2020/12/04 06:08:50;;;;;;;72.28;12.93;;;2.70;1.00;;;;;;5053822;28;20212;-70
2020/12/04 06:11:17;;;;;;;66.53;11.70;;;2.70;1.00;;;;;;5053398;28;20233;-70
2020/12/04 06:13:44;;;;;;;70.25;12.85;;;2.70;1.00;;;;;;5053546;28;20233;-70
2020/12/04 06:16:15;;;;;;;70.30;11.43;;;2.80;1.00;;;;;;5053204;28;20208;-70
2020/12/04 06:18:43;;;;;;;68.78;12.70;;;2.80;1.00;;;;;;5053353;28;20300;-70
2020/12/04 06:21:09;;;;;;;69.35;11.65;;;2.80;1.00;;;;;;5053397;28;20609;-70
2020/12/04 06:23:35;;;;;;;67.75;11.63;;;2.80;1.00;;;;;;5077573;22;20692;-73
2020/12/04 06:26:04;;;;;;;67.70;12.15;;;2.80;1.00;;;;;;5053204;28;20236;-73
2020/12/04 06:28:32;;;;;;;68.63;11.65;;;2.80;1.00;;;;;;5052996;28;20710;-72
2020/12/04 06:31:07;;;;;;;70.90;12.38;;;2.80;1.00;;;;;;5053034;28;20214;-73
2020/12/04 06:33:46;;;;;;;66.07;9.85;;;2.90;1.00;;;;;;5053275;28;20319;-72
2020/12/04 06:36:33;;;;;;;67.03;10.90;;;2.90;1.00;;;;;;5053120;28;20252;-73
2020/12/04 06:39:01;;;;;;;68.30;11.70;;;2.90;1.00;;;;;;5053239;28;20209;-73
2020/12/04 06:41:30;;;;;;;68.03;11.27;;;3.00;1.00;;;;;;5052839;28;20209;-73
2020/12/04 06:43:58;;;;;;;70.68;12.65;;;3.00;1.00;;;;;;5053181;28;20225;-72
2020/12/04 06:46:39;;;;;;;66.95;11.23;;;3.00;1.00;;;;;;5053099;28;20261;-73
2020/12/04 06:49:35;;;;;;;66.60;10.60;;;3.10;1.00;;;;;;5053164;28;20210;-73
2020/12/04 06:52:04;;;;;;;66.40;10.95;;;3.10;1.00;;;;;;5054142;28;20256;-73
2020/12/04 06:54:32;;;;;;;71.35;10.95;;;3.10;1.00;;;;;;5053103;28;20205;-72
2020/12/04 06:56:59;;;;;;;66.55;10.65;;;3.10;1.00;;;;;;5052540;28;20202;-73
2020/12/04 06:59:29;;;;;;;64.65;9.80;;;3.10;1.00;;;;;;5052730;28;20206;-72
2020/12/04 07:02:01;;;;;;;66.82;11.13;;;3.10;1.00;;;;;;5052721;28;20208;-72
2020/12/04 07:04:30;;;;;;;67.63;11.52;;;3.20;1.00;;;;;;5052293;28;20209;-73
2020/12/04 07:07:10;;;;;;;67.90;10.85;;;3.10;1.00;;;;;;5052563;28;20237;-72
2020/12/04 07:09:37;;;;;;;65.10;10.02;;;3.10;1.00;;;;;;5052766;28;20209;-72
2020/12/04 07:12:04;;;;;;;66.95;9.55;;;3.20;1.00;;;;;;5052965;28;20316;-72
2020/12/04 07:14:31;;;;;;;67.72;9.65;;;3.10;1.00;;;;;;5052546;28;20292;-73
2020/12/04 07:16:58;;;;;;;67.30;11.43;;;3.20;1.00;;;;;;5051899;28;20296;-72
2020/12/04 07:19:25;;;;;;;66.43;11.05;;;3.20;1.00;;;;;;5052409;28;20737;-72
2020/12/04 07:21:52;;;;;;;68.55;10.98;;;3.20;1.00;;;;;;5052251;28;20206;-72
2020/12/04 07:24:19;;;;;;;67.93;11.60;;;3.20;1.00;;;;;;5052405;28;20227;-72
2020/12/04 07:26:51;;;;;;;66.15;10.43;;;3.20;1.00;;;;;;5051829;28;20212;-72
2020/12/04 07:29:18;;;;;;;68.90;11.80;;;3.20;1.00;;;;;;5051593;28;20590;-72
2020/12/04 07:31:47;;;;;;;66.57;9.45;;;3.20;1.00;;;;;;5051938;28;20292;-73
2020/12/04 07:34:18;;;;;;;66.90;11.40;;;3.20;1.00;;;;;;5052290;28;20205;-72
2020/12/04 07:36:49;;;;;;;68.60;11.85;;;3.20;1.00;;;;;;5052018;28;20209;-72
2020/12/04 07:39:23;;;;;;;69.82;11.35;;;3.20;1.00;;;;;;5052056;28;20209;-73
2020/12/04 07:41:50;;;;;;;67.47;11.38;;;3.20;1.00;;;;;;5051774;28;20205;-73
2020/12/04 07:44:17;;;;;;;67.75;11.93;;;3.20;1.00;;;;;;5052045;28;20634;-72
2020/12/04 07:46:44;;;;;;;66.10;11.07;;;3.20;1.00;;;;;;5051461;28;20700;-73
2020/12/04 07:49:11;;;;;;;70.18;11.38;;;3.30;1.00;;;;;;5051884;28;20264;-72
2020/12/04 07:51:41;;;;;;;65.53;9.18;;;3.30;1.00;;;;;;5051751;28;20677;-72
2020/12/04 07:54:20;;;;;;;66.80;11.15;;;3.30;1.00;;;;;;5051584;28;20304;-73
2020/12/04 07:56:53;;;;;;;70.50;12.32;;;3.30;1.00;;;;;;5051653;28;20292;-73
2020/12/04 07:59:26;;;;;;;65.38;10.60;;;3.40;1.00;;;;;;5052276;28;20209;-73
2020/12/04 08:01:53;;;;;;;67.95;11.43;;;3.40;1.00;;;;;;5052330;28;20205;-72
2020/12/04 08:04:20;;;;;;;67.50;11.77;;;3.40;1.00;;;;;;5051889;28;20288;-74
2020/12/04 08:06:46;;;;;;;66.40;10.15;;;3.50;1.00;;;;;;5051169;28;20725;-72
2020/12/04 08:09:15;;;;;;;67.35;11.15;;;3.50;1.00;;;;;;5051745;28;20213;-73
2020/12/04 08:11:53;;;;;;;67.32;9.68;;;3.60;1.00;;;;;;5051675;28;20256;-73
2020/12/04 08:14:25;;;;;;;68.72;10.68;;;3.60;1.00;;;;;;5051699;28;20244;-73
2020/12/04 08:16:56;;;;;;;67.50;11.45;;;3.70;1.00;;;;;;5051273;28;20231;-73
2020/12/04 08:19:27;;;;;;;68.25;11.93;;;3.80;1.00;;;;;;5051524;28;20209;-73
2020/12/04 08:22:02;;;;;;;66.78;10.07;;;3.80;1.00;;;;;;5057821;28;20260;-71
2020/12/04 08:24:31;;;;;;;64.35;10.05;;;3.90;1.00;;;;;;5064859;28;20204;-73
2020/12/04 08:27:07;;;;;;;70.65;11.52;;;3.90;1.00;;;;;;5064884;28;20240;-74
2020/12/04 08:29:34;;;;;;;66.88;10.90;;;3.90;1.00;;;;;;5065560;28;20611;-73
2020/12/04 08:32:20;;;;;;;67.28;11.23;;;3.90;1.00;;;;;;5066037;28;20249;-73
2020/12/04 08:34:47;;;;;;;65.25;10.30;;;3.90;1.00;;;;;;5065668;28;20201;-73
2020/12/04 08:37:15;;;;;;;64.97;10.50;;;4.00;1.00;;;;;;5065894;28;20209;-72
2020/12/04 08:39:47;;;;;;;69.50;11.00;;;4.00;1.00;;;;;;5065438;28;20240;-72
2020/12/04 08:42:16;;;;;;;66.65;9.93;;;4.10;1.00;;;;;;5068039;28;20264;-73
2020/12/04 08:44:43;;;;;;;65.93;10.55;;;4.20;1.00;;;;;;5069509;28;20232;-73
2020/12/04 08:47:09;;;;;;;64.35;10.27;;;4.30;1.00;;;;;;5056654;28;20212;-73
2020/12/04 08:49:36;;;;;;;69.65;10.68;;;4.40;1.00;;;;;;5056029;28;20205;-72
2020/12/04 08:52:03;;;;;;;68.82;11.20;;;4.50;1.00;;;;;;5063117;28;20228;-71
2020/12/04 08:54:30;;;;;;;66.65;10.05;;;4.60;1.00;;;;;;5055868;28;20205;-73
2020/12/04 08:56:56;;;;;;;68.82;9.93;;;4.70;1.00;;;;;;5054646;28;20209;-71
2020/12/04 08:59:24;;;;;;;64.97;9.70;;;4.80;1.00;;;;;;5055125;28;20202;-73
2020/12/04 09:01:51;;;;;;;65.28;10.30;;;4.80;1.00;;;;;;5055068;28;20228;-73
2020/12/04 09:04:18;;;;;;;67.80;11.60;;;4.90;1.00;;;;;;5055024;28;20241;-73
2020/12/04 09:06:46;;;;;;;72.93;11.30;;;5.00;1.00;;;;;;5054377;28;20271;-72
2020/12/04 09:09:12;;;;;;;67.15;10.68;;;5.00;1.00;;;;;;5054812;28;20205;-73
2020/12/04 09:11:39;;;;;;;64.45;10.70;;;5.10;1.00;;;;;;5054940;28;20216;-73
2020/12/04 09:14:05;;;;;;;67.80;11.55;;;5.20;1.00;;;;;;5054573;28;20329;-72
2020/12/04 09:16:32;;;;;;;66.53;11.30;;;5.30;1.00;;;;;;5054228;28;20213;-72
2020/12/04 09:18:58;;;;;;;65.28;10.45;;;5.30;1.00;;;;;;5054598;28;20202;-73
2020/12/04 09:21:25;;;;;;;66.47;9.90;;;5.40;1.00;;;;;;5054556;28;20210;-73
2020/12/04 09:23:51;;;;;;;65.00;9.55;;;5.40;1.00;;;;;;5054234;28;20321;-73
2020/12/04 09:26:19;;;;;;;65.05;9.60;;;5.60;1.00;;;;;;5054574;28;20626;-73
2020/12/04 09:28:45;;;;;;;68.78;9.40;;;5.70;1.00;;;;;;5054294;28;20279;-73
2020/12/04 09:31:12;;;;;;;65.97;10.50;;;5.80;1.00;;;;;;5054570;28;20205;-73
2020/12/04 09:33:39;;;;;;;67.20;10.85;;;5.90;1.00;;;;;;5053998;28;20225;-73
2020/12/04 09:36:05;;;;;;;65.28;10.10;;;5.90;1.00;;;;;;5054420;28;20202;-73
2020/12/04 09:38:31;;;;;;;67.60;11.05;;;5.80;1.00;;;;;;5053677;28;20209;-72
2020/12/04 09:40:58;;;;;;;67.15;10.70;;;5.70;1.00;;;;;;5054558;28;20296;-73
2020/12/04 09:43:24;;;;;;;68.25;10.73;;;5.60;1.00;;;;;;5054157;28;20603;-71
2020/12/04 09:45:51;;;;;;;66.97;10.48;;;5.50;1.00;;;;;;5054124;28;20230;-71
2020/12/04 09:48:17;;;;;;;68.80;10.85;;;5.50;1.00;;;;;;5053830;28;20209;-73
2020/12/04 09:50:44;;;;;;;65.05;10.60;;;5.60;1.00;;;;;;5054634;28;20617;-71
2020/12/04 09:53:12;;;;;;;67.63;10.93;;;5.60;1.00;;;;;;5053312;28;20295;-73
2020/12/04 09:55:38;;;;;;;67.20;10.52;;;5.60;1.00;;;;;;5054025;28;20206;-72
2020/12/04 09:58:05;;;;;;;64.70;9.88;;;5.70;1.00;;;;;;5053752;28;20263;-75
2020/12/04 10:00:31;;;;;;;66.95;11.02;;;5.70;1.00;;;;;;5053787;28;20263;-75
2020/12/04 10:02:57;;;;;;;65.68;10.18;;;5.70;1.00;;;;;;5071811;28;20316;-73
2020/12/04 10:05:24;;;;;;;64.15;9.18;;;5.70;1.00;;;;;;5061214;28;20230;-70
2020/12/04 10:07:51;;;;;;;63.10;8.52;;;5.70;1.00;;;;;;5053337;28;20206;-72
2020/12/04 10:10:17;;;;;;;65.97;9.98;;;5.70;1.00;;;;;;5053667;28;20203;-72
2020/12/04 10:12:43;;;;;;;65.20;9.95;;;5.80;1.00;;;;;;5053843;28;20230;-72
2020/12/04 10:15:10;;;;;;;64.32;8.73;;;5.80;1.00;;;;;;5053681;28;20206;-71
2020/12/04 10:17:36;;;;;;;65.88;8.65;;;5.80;1.00;;;;;;5053430;28;20293;-73
2020/12/04 10:20:03;;;;;;;63.88;9.27;;;5.80;1.00;;;;;;5053478;28;20295;-70
2020/12/04 10:22:29;;;;;;;64.78;9.65;;;5.80;1.00;;;;;;5053148;28;20250;-73
2020/12/04 10:24:57;;;;;;;64.70;9.15;;;5.80;1.00;;;;;;5053578;28;20214;-71
2020/12/04 10:27:23;;;;;;;67.03;11.90;;;5.80;1.00;;;;;;5052952;28;20680;-72
2020/12/04 10:29:50;;;;;;;68.78;11.15;;;5.80;1.00;;;;;;5053295;28;20247;-71
2020/12/04 10:32:16;;;;;;;69.80;11.02;;;5.80;1.00;;;;;;5053303;28;20236;-71
2020/12/04 10:34:43;;;;;;;65.60;9.55;;;5.80;1.00;;;;;;5053669;28;20205;-71
2020/12/04 10:37:09;;;;;;;66.05;10.38;;;5.80;1.00;;;;;;5051856;28;20293;-71
2020/12/04 10:39:36;;;;;;;65.10;10.00;;;5.70;1.00;;;;;;5053306;28;20641;-73
2020/12/04 10:42:04;;;;;;;64.65;9.55;;;5.70;1.00;;;;;;5052773;28;20743;-73
2020/12/04 10:44:32;;;;;;;64.63;8.95;;;5.70;1.00;;;;;;5053190;28;20206;-72
2020/12/04 10:46:59;;;;;;;64.72;8.88;;;5.70;1.00;;;;;;5052663;28;20222;-72
2020/12/04 10:49:25;;;;;;;66.22;10.18;;;5.70;1.00;;;;;;5052780;28;20209;-72
2020/12/04 10:51:54;;;;;;;64.68;9.68;;;5.70;1.00;;;;;;5055985;28;20278;-72
2020/12/04 10:54:20;;;;;;;70.15;9.98;;;5.80;1.00;;;;;;5058802;28;20201;-72
2020/12/04 10:56:47;;;;;;;65.43;9.20;;;5.80;1.00;;;;;;5052616;28;20228;-72
2020/12/04 10:59:14;;;;;;;64.80;9.70;;;5.80;1.00;;;;;;5052779;28;20292;-72
2020/12/04 11:01:44;;;;;;;64.47;8.90;;;5.80;1.00;;;;;;5052598;28;20212;-73
2020/12/04 11:06:56;;;;;;;67.43;10.43;;;5.90;1.00;;;;;;5052375;28;20232;-71
2020/12/04 11:09:22;;;;;;;65.25;9.25;;;5.90;1.00;;;;;;5052555;28;20692;-71
2020/12/04 11:11:48;;;;;;;65.50;8.93;;;6.00;1.00;;;;;;5052460;28;20288;-72
2020/12/04 11:14:16;;;;;;;66.65;9.40;;;6.00;1.00;;;;;;5052308;28;20275;-72
2020/12/04 11:16:42;;;;;;;65.80;9.60;;;6.10;1.00;;;;;;5052234;28;20212;-72
2020/12/04 11:19:09;;;;;;;64.32;9.88;;;6.10;1.00;;;;;;5052586;28;20579;-72
2020/12/04 11:21:35;;;;;;;64.03;9.55;;;6.20;1.00;;;;;;5052179;28;20205;-73
2020/12/04 11:24:01;;;;;;;65.43;8.82;;;6.20;1.00;;;;;;5052028;28;20245;-72
2020/12/04 11:26:28;;;;;;;67.47;11.23;;;6.20;1.00;;;;;;5052029;28;20598;-71
2020/12/04 11:28:54;;;;;;;66.18;9.93;;;6.20;1.00;;;;;;5051736;28;20255;-72
2020/12/04 11:31:21;;;;;;;65.10;10.07;;;6.20;1.00;;;;;;5052260;28;20206;-71
2020/12/04 11:33:48;;;;;;;65.93;9.45;;;6.20;1.00;;;;;;5051873;28;20233;-72
2020/12/04 11:36:14;;;;;;;65.68;9.82;;;6.30;1.00;;;;;;5051972;28;20251;-72
2020/12/04 11:38:40;;;;;;;67.90;10.45;;;6.30;1.00;;;;;;5051933;28;20557;-72
2020/12/04 11:41:07;;;;;;;64.95;9.55;;;6.40;1.00;;;;;;5051894;28;20214;-71
2020/12/04 11:43:33;;;;;;;65.60;10.65;;;6.40;1.00;;;;;;5051620;28;20229;-72
2020/12/04 11:46:00;;;;;;;69.80;11.20;;;6.40;1.00;;;;;;5052010;28;20428;-73
2020/12/04 11:48:28;;;;;;;66.90;11.68;;;6.30;1.00;;;;;;5051698;28;20206;-72
2020/12/04 11:50:54;;;;;;;65.63;11.50;;;6.30;1.00;;;;;;5052100;28;20210;-71
2020/12/04 11:53:20;;;;;;;70.80;11.63;;;6.20;1.00;;;;;;5051690;28;20604;-72
2020/12/04 11:55:47;;;;;;;66.53;10.65;;;6.20;1.00;;;;;;5051653;28;20217;-72
2020/12/04 11:58:13;;;;;;;67.90;11.05;;;6.20;1.00;;;;;;5051163;28;20209;-72
2020/12/04 12:00:39;;;;;;;69.18;11.32;;;6.20;1.00;;;;;;5051905;28;20788;-72
2020/12/04 12:03:05;;;;;;;64.57;9.65;;;6.20;1.00;;;;;;5051343;28;20715;-72
2020/12/04 12:05:36;;;;;;;66.57;10.25;;;6.20;1.00;;;;;;5051658;28;20225;-72
2020/12/04 12:08:03;;;;;;;71.05;12.48;;;6.20;1.00;;;;;;5051304;28;20206;-72
2020/12/04 12:10:29;;;;;;;70.55;11.32;;;6.20;1.00;;;;;;5051495;28;20266;-72
2020/12/04 12:12:55;;;;;;;66.18;9.68;;;6.20;1.00;;;;;;5051359;28;20344;-71
2020/12/04 12:15:22;;;;;;;71.40;10.82;;;6.20;1.00;;;;;;5051505;28;20205;-71
2020/12/04 12:17:48;;;;;;;66.13;10.05;;;6.20;1.00;;;;;;5051308;28;20205;-72
2020/12/04 12:20:14;;;;;;;65.55;9.32;;;6.20;1.00;;;;;;5050690;28;20214;-72
2020/12/04 12:22:41;;;;;;;66.97;10.43;;;6.10;1.00;;;;;;5051181;28;20589;-73
2020/12/04 12:25:08;;;;;;;66.85;10.60;;;6.10;1.00;;;;;;5096025;22;20232;-73
2020/12/04 12:27:34;;;;;;;67.90;10.52;;;6.10;1.00;;;;;;5071156;28;20259;-73
2020/12/04 12:30:01;;;;;;;68.95;11.80;;;6.00;1.00;;;;;;5071237;28;20252;-72
2020/12/04 12:32:27;;;;;;;70.53;12.35;;;6.00;1.00;;;;;;5071327;28;20282;-73
2020/12/04 12:35:00;;;;;;;67.10;11.13;;;6.00;1.00;;;;;;5071202;28;20799;-73
2020/12/04 12:37:28;;;;;;;69.80;12.20;;;5.90;1.00;;;;;;5071007;28;20739;-72
2020/12/04 12:39:55;;;;;;;71.13;12.10;;;5.90;1.00;;;;;;5072018;28;20200;-73
2020/12/04 12:42:22;;;;;;;70.35;12.02;;;5.90;1.00;;;;;;5072910;28;20225;-72
2020/12/04 12:44:48;;;;;;;65.72;10.60;;;5.90;1.00;;;;;;5071179;28;20315;-72
2020/12/04 12:47:15;;;;;;;68.72;10.70;;;5.90;1.00;;;;;;5070846;28;20315;-73
2020/12/04 12:49:41;;;;;;;67.07;11.20;;;6.00;1.00;;;;;;5071334;28;20205;-71
2020/12/04 12:52:08;;;;;;;64.20;9.68;;;6.00;1.00;;;;;;5070704;28;20556;-72
2020/12/04 12:54:35;;;;;;;70.80;12.57;;;6.00;1.00;;;;;;5071108;28;20587;-72